sensor_id;sensor_type;location;lat;lon;timestamp;temperature;humidity
336;DHT22;156;48.738;9.228;2023-02-11T00:00:55;0.60;1.00
336;DHT22;156;48.738;9.228;2023-02-11T00:03:22;0.50;1.00
336;DHT22;156;48.738;9.228;2023-02-11T00:05:56;0.50;1.00
336;DHT22;156;48.738;9.228;2023-02-11T00:08:25;0.70;1.00
336;DHT22;156;48.738;9.228;2023-02-11T00:10:52;0.70;1.00
336;DHT22;156;48.738;9.228;2023-02-11T00:13:20;0.80;1.00
336;DHT22;156;48.738;9.228;2023-02-11T00:15:48;0.70;1.00
336;DHT22;156;48.738;9.228;2023-02-11T00:18:15;0.70;1.00
336;DHT22;156;48.738;9.228;2023-02-11T00:20:42;0.60;1.00
336;DHT22;156;48.738;9.228;2023-02-11T00:23:09;0.40;1.00
336;DHT22;156;48.738;9.228;2023-02-11T00:25:39;0.40;1.00
336;DHT22;156;48.738;9.228;2023-02-11T00:28:06;0.40;1.00
336;DHT22;156;48.738;9.228;2023-02-11T00:30:33;0.30;1.00
336;DHT22;156;48.738;9.228;2023-02-11T00:33:00;0.30;1.00
336;DHT22;156;48.738;9.228;2023-02-11T00:35:27;0.20;1.00
336;DHT22;156;48.738;9.228;2023-02-11T00:37:54;0.20;1.00
336;DHT22;156;48.738;9.228;2023-02-11T00:40:22;0.20;1.00
336;DHT22;156;48.738;9.228;2023-02-11T00:42:50;0.20;1.00
336;DHT22;156;48.738;9.228;2023-02-11T00:45:17;0.10;1.00
336;DHT22;156;48.738;9.228;2023-02-11T00:47:45;0.10;1.00
336;DHT22;156;48.738;9.228;2023-02-11T00:50:12;0.10;1.00
336;DHT22;156;48.738;9.228;2023-02-11T00:52:39;0.10;1.00
336;DHT22;156;48.738;9.228;2023-02-11T00:55:07;0.00;1.00
336;DHT22;156;48.738;9.228;2023-02-11T00:57:34;0.00;1.00
336;DHT22;156;48.738;9.228;2023-02-11T01:00:02;-0.10;1.00
336;DHT22;156;48.738;9.228;2023-02-11T01:02:29;-0.10;1.00
336;DHT22;156;48.738;9.228;2023-02-11T01:04:56;-0.20;1.00
336;DHT22;156;48.738;9.228;2023-02-11T01:07:24;-0.40;1.00
336;DHT22;156;48.738;9.228;2023-02-11T01:09:51;-0.50;1.00
336;DHT22;156;48.738;9.228;2023-02-11T01:12:18;-0.60;1.00
336;DHT22;156;48.738;9.228;2023-02-11T01:14:45;-0.70;1.00
336;DHT22;156;48.738;9.228;2023-02-11T01:17:13;-0.70;1.00
336;DHT22;156;48.738;9.228;2023-02-11T01:19:40;-0.70;1.00
336;DHT22;156;48.738;9.228;2023-02-11T01:22:08;-0.80;1.00
336;DHT22;156;48.738;9.228;2023-02-11T01:24:35;-0.80;1.00
336;DHT22;156;48.738;9.228;2023-02-11T01:27:01;-0.80;1.00
336;DHT22;156;48.738;9.228;2023-02-11T01:29:31;-0.90;1.00
336;DHT22;156;48.738;9.228;2023-02-11T01:31:58;-0.90;1.00
336;DHT22;156;48.738;9.228;2023-02-11T01:34:27;-0.90;1.00
336;DHT22;156;48.738;9.228;2023-02-11T01:36:56;-0.90;1.00
336;DHT22;156;48.738;9.228;2023-02-11T01:39:24;-0.90;1.00
336;DHT22;156;48.738;9.228;2023-02-11T01:41:51;-0.90;1.00
336;DHT22;156;48.738;9.228;2023-02-11T01:44:27;-0.90;1.00
336;DHT22;156;48.738;9.228;2023-02-11T01:46:54;-0.90;1.00
336;DHT22;156;48.738;9.228;2023-02-11T01:49:24;-0.90;1.00
336;DHT22;156;48.738;9.228;2023-02-11T01:51:57;-0.90;1.00
336;DHT22;156;48.738;9.228;2023-02-11T01:54:28;-0.90;1.00
336;DHT22;156;48.738;9.228;2023-02-11T01:57:16;-0.80;1.00
336;DHT22;156;48.738;9.228;2023-02-11T02:00:05;-0.90;1.00
336;DHT22;156;48.738;9.228;2023-02-11T02:02:39;-0.80;1.00
336;DHT22;156;48.738;9.228;2023-02-11T02:05:16;-0.80;1.00
336;DHT22;156;48.738;9.228;2023-02-11T02:07:51;-0.80;1.00
336;DHT22;156;48.738;9.228;2023-02-11T02:10:22;-0.90;1.00
336;DHT22;156;48.738;9.228;2023-02-11T02:12:50;-0.90;1.00
336;DHT22;156;48.738;9.228;2023-02-11T02:15:24;-0.90;1.00
336;DHT22;156;48.738;9.228;2023-02-11T02:18:01;-0.90;1.00
336;DHT22;156;48.738;9.228;2023-02-11T02:23:56;-0.90;1.00
336;DHT22;156;48.738;9.228;2023-02-11T02:32:38;-0.80;1.00
336;DHT22;156;48.738;9.228;2023-02-11T02:35:18;-0.70;1.00
336;DHT22;156;48.738;9.228;2023-02-11T02:37:55;-0.60;1.00
336;DHT22;156;48.738;9.228;2023-02-11T02:40:27;-0.50;1.00
336;DHT22;156;48.738;9.228;2023-02-11T02:42:55;-0.50;1.00
336;DHT22;156;48.738;9.228;2023-02-11T02:45:24;-0.40;1.00
336;DHT22;156;48.738;9.228;2023-02-11T02:47:52;-0.30;1.00
336;DHT22;156;48.738;9.228;2023-02-11T02:50:23;-0.30;1.00
336;DHT22;156;48.738;9.228;2023-02-11T02:53:02;-0.30;1.00
336;DHT22;156;48.738;9.228;2023-02-11T02:55:43;-0.40;1.00
336;DHT22;156;48.738;9.228;2023-02-11T02:58:37;-0.40;1.00
336;DHT22;156;48.738;9.228;2023-02-11T03:01:11;-0.40;1.00
336;DHT22;156;48.738;9.228;2023-02-11T03:03:43;-0.50;1.00
336;DHT22;156;48.738;9.228;2023-02-11T03:06:17;-0.60;1.00
336;DHT22;156;48.738;9.228;2023-02-11T03:08:50;-0.70;1.00
336;DHT22;156;48.738;9.228;2023-02-11T03:11:23;-0.80;1.00
336;DHT22;156;48.738;9.228;2023-02-11T03:13:51;-0.80;1.00
336;DHT22;156;48.738;9.228;2023-02-11T03:16:23;-0.90;1.00
336;DHT22;156;48.738;9.228;2023-02-11T03:18:55;-0.80;1.00
336;DHT22;156;48.738;9.228;2023-02-11T03:21:24;-0.80;1.00
336;DHT22;156;48.738;9.228;2023-02-11T03:23:54;-0.80;1.00
336;DHT22;156;48.738;9.228;2023-02-11T03:26:24;-0.90;1.00
336;DHT22;156;48.738;9.228;2023-02-11T03:28:59;-0.90;1.00
336;DHT22;156;48.738;9.228;2023-02-11T03:31:32;-0.80;1.00
336;DHT22;156;48.738;9.228;2023-02-11T03:34:06;-0.80;1.00
336;DHT22;156;48.738;9.228;2023-02-11T03:36:40;-0.80;1.00
336;DHT22;156;48.738;9.228;2023-02-11T03:39:11;-0.80;1.00
336;DHT22;156;48.738;9.228;2023-02-11T03:41:40;-0.90;1.00
336;DHT22;156;48.738;9.228;2023-02-11T03:44:09;-0.90;1.00
336;DHT22;156;48.738;9.228;2023-02-11T03:46:39;-0.90;1.00
336;DHT22;156;48.738;9.228;2023-02-11T03:49:11;-0.80;1.00
336;DHT22;156;48.738;9.228;2023-02-11T03:51:39;-0.80;1.00
336;DHT22;156;48.738;9.228;2023-02-11T03:54:09;-0.80;1.00
336;DHT22;156;48.738;9.228;2023-02-11T03:56:40;-0.80;1.00
336;DHT22;156;48.738;9.228;2023-02-11T03:59:10;-0.80;1.00
336;DHT22;156;48.738;9.228;2023-02-11T04:01:37;-0.80;1.00
336;DHT22;156;48.738;9.228;2023-02-11T04:04:04;-0.80;1.00
336;DHT22;156;48.738;9.228;2023-02-11T04:06:32;-0.90;1.00
336;DHT22;156;48.738;9.228;2023-02-11T04:08:59;-0.90;1.00
336;DHT22;156;48.738;9.228;2023-02-11T04:11:26;-0.90;1.00
336;DHT22;156;48.738;9.228;2023-02-11T04:13:53;-0.80;1.00
336;DHT22;156;48.738;9.228;2023-02-11T04:16:20;-0.80;1.00
336;DHT22;156;48.738;9.228;2023-02-11T04:18:47;-0.70;1.00
336;DHT22;156;48.738;9.228;2023-02-11T04:21:13;-0.70;1.00
336;DHT22;156;48.738;9.228;2023-02-11T04:23:42;-0.70;1.00
336;DHT22;156;48.738;9.228;2023-02-11T04:26:08;-0.60;1.00
336;DHT22;156;48.738;9.228;2023-02-11T04:28:35;-0.60;1.00
336;DHT22;156;48.738;9.228;2023-02-11T04:31:02;-0.50;1.00
336;DHT22;156;48.738;9.228;2023-02-11T04:33:29;-0.50;1.00
336;DHT22;156;48.738;9.228;2023-02-11T04:35:56;-0.40;1.00
336;DHT22;156;48.738;9.228;2023-02-11T04:38:23;-0.30;1.00
336;DHT22;156;48.738;9.228;2023-02-11T04:40:51;-0.40;1.00
336;DHT22;156;48.738;9.228;2023-02-11T04:43:18;-0.40;1.00
336;DHT22;156;48.738;9.228;2023-02-11T04:45:45;-0.40;1.00
336;DHT22;156;48.738;9.228;2023-02-11T04:48:12;-0.50;1.00
336;DHT22;156;48.738;9.228;2023-02-11T04:50:39;-0.60;1.00
336;DHT22;156;48.738;9.228;2023-02-11T04:53:06;-0.60;1.00
336;DHT22;156;48.738;9.228;2023-02-11T04:55:33;-0.70;1.00
336;DHT22;156;48.738;9.228;2023-02-11T04:58:01;-0.70;1.00
336;DHT22;156;48.738;9.228;2023-02-11T05:00:28;-0.80;1.00
336;DHT22;156;48.738;9.228;2023-02-11T05:02:55;-0.90;1.00
336;DHT22;156;48.738;9.228;2023-02-11T05:05:22;-0.90;1.00
336;DHT22;156;48.738;9.228;2023-02-11T05:07:49;-0.90;1.00
336;DHT22;156;48.738;9.228;2023-02-11T05:10:16;-1.00;1.00
336;DHT22;156;48.738;9.228;2023-02-11T05:12:43;-1.00;1.00
336;DHT22;156;48.738;9.228;2023-02-11T05:15:11;-1.10;1.00
336;DHT22;156;48.738;9.228;2023-02-11T05:17:38;-1.00;1.00
336;DHT22;156;48.738;9.228;2023-02-11T05:20:05;-1.00;1.00
336;DHT22;156;48.738;9.228;2023-02-11T05:22:32;-1.10;1.00
336;DHT22;156;48.738;9.228;2023-02-11T05:24:59;-1.10;1.00
336;DHT22;156;48.738;9.228;2023-02-11T05:27:26;-1.10;1.00
336;DHT22;156;48.738;9.228;2023-02-11T05:29:53;-1.20;1.00
336;DHT22;156;48.738;9.228;2023-02-11T05:32:21;-1.30;1.00
336;DHT22;156;48.738;9.228;2023-02-11T05:34:48;-1.30;1.00
336;DHT22;156;48.738;9.228;2023-02-11T05:37:15;-1.20;1.00
336;DHT22;156;48.738;9.228;2023-02-11T05:39:42;-1.30;1.00
336;DHT22;156;48.738;9.228;2023-02-11T05:42:08;-1.40;1.00
336;DHT22;156;48.738;9.228;2023-02-11T05:44:35;-1.40;1.00
336;DHT22;156;48.738;9.228;2023-02-11T05:47:02;-1.30;1.00
336;DHT22;156;48.738;9.228;2023-02-11T05:49:31;-1.40;1.00
336;DHT22;156;48.738;9.228;2023-02-11T05:51:57;-1.50;1.00
336;DHT22;156;48.738;9.228;2023-02-11T05:54:24;-1.40;1.00
336;DHT22;156;48.738;9.228;2023-02-11T05:56:51;-1.30;1.00
336;DHT22;156;48.738;9.228;2023-02-11T05:59:18;-1.30;1.00
336;DHT22;156;48.738;9.228;2023-02-11T06:01:45;-1.20;1.00
336;DHT22;156;48.738;9.228;2023-02-11T06:04:12;-1.20;1.00
336;DHT22;156;48.738;9.228;2023-02-11T06:06:40;-1.10;1.00
336;DHT22;156;48.738;9.228;2023-02-11T06:09:08;-1.00;1.00
336;DHT22;156;48.738;9.228;2023-02-11T06:11:35;-0.90;1.00
336;DHT22;156;48.738;9.228;2023-02-11T06:14:02;-0.90;1.00
336;DHT22;156;48.738;9.228;2023-02-11T06:16:29;-0.80;1.00
336;DHT22;156;48.738;9.228;2023-02-11T06:18:56;-0.70;1.00
336;DHT22;156;48.738;9.228;2023-02-11T06:21:23;-0.70;1.00
336;DHT22;156;48.738;9.228;2023-02-11T06:23:51;-0.60;1.00
336;DHT22;156;48.738;9.228;2023-02-11T06:26:20;-0.50;1.00
336;DHT22;156;48.738;9.228;2023-02-11T06:28:47;-0.40;1.00
336;DHT22;156;48.738;9.228;2023-02-11T06:31:14;-0.30;1.00
336;DHT22;156;48.738;9.228;2023-02-11T06:33:41;-0.10;1.00
336;DHT22;156;48.738;9.228;2023-02-11T06:36:13;-0.10;1.00
336;DHT22;156;48.738;9.228;2023-02-11T06:38:40;-0.10;1.00
336;DHT22;156;48.738;9.228;2023-02-11T06:41:09;-0.20;1.00
336;DHT22;156;48.738;9.228;2023-02-11T06:43:36;-0.20;1.00
336;DHT22;156;48.738;9.228;2023-02-11T06:46:04;-0.30;1.00
336;DHT22;156;48.738;9.228;2023-02-11T06:48:31;-0.40;1.00
336;DHT22;156;48.738;9.228;2023-02-11T06:51:00;-0.30;1.00
336;DHT22;156;48.738;9.228;2023-02-11T06:53:28;-0.30;1.00
336;DHT22;156;48.738;9.228;2023-02-11T06:55:54;-0.20;1.00
336;DHT22;156;48.738;9.228;2023-02-11T06:58:23;-0.20;1.00
336;DHT22;156;48.738;9.228;2023-02-11T07:00:50;-0.10;1.00
336;DHT22;156;48.738;9.228;2023-02-11T07:03:17;0.00;1.00
336;DHT22;156;48.738;9.228;2023-02-11T07:05:43;0.00;1.00
336;DHT22;156;48.738;9.228;2023-02-11T07:08:10;0.10;1.00
336;DHT22;156;48.738;9.228;2023-02-11T07:10:37;0.10;1.00
336;DHT22;156;48.738;9.228;2023-02-11T07:13:04;0.10;1.00
336;DHT22;156;48.738;9.228;2023-02-11T07:15:33;0.00;1.00
336;DHT22;156;48.738;9.228;2023-02-11T07:18:00;0.10;1.00
336;DHT22;156;48.738;9.228;2023-02-11T07:20:26;0.00;1.00
336;DHT22;156;48.738;9.228;2023-02-11T07:22:53;-0.20;1.00
336;DHT22;156;48.738;9.228;2023-02-11T07:25:20;-0.30;1.00
336;DHT22;156;48.738;9.228;2023-02-11T07:27:47;-0.30;1.00
336;DHT22;156;48.738;9.228;2023-02-11T07:30:14;-0.30;1.00
336;DHT22;156;48.738;9.228;2023-02-11T07:32:42;-0.30;1.00
336;DHT22;156;48.738;9.228;2023-02-11T07:35:09;-0.30;1.00
336;DHT22;156;48.738;9.228;2023-02-11T07:37:36;-0.40;1.00
336;DHT22;156;48.738;9.228;2023-02-11T07:40:04;-0.50;1.00
336;DHT22;156;48.738;9.228;2023-02-11T07:42:33;-0.30;1.00
336;DHT22;156;48.738;9.228;2023-02-11T07:45:00;-0.20;1.00
336;DHT22;156;48.738;9.228;2023-02-11T07:47:27;-0.20;1.00
336;DHT22;156;48.738;9.228;2023-02-11T07:49:55;-0.10;1.00
336;DHT22;156;48.738;9.228;2023-02-11T07:52:22;0.10;1.00
336;DHT22;156;48.738;9.228;2023-02-11T07:54:49;0.10;1.00
336;DHT22;156;48.738;9.228;2023-02-11T07:57:15;0.20;1.00
336;DHT22;156;48.738;9.228;2023-02-11T07:59:42;0.20;1.00
336;DHT22;156;48.738;9.228;2023-02-11T08:02:09;0.20;1.00
336;DHT22;156;48.738;9.228;2023-02-11T08:04:36;0.20;1.00
336;DHT22;156;48.738;9.228;2023-02-11T08:07:04;0.20;1.00
336;DHT22;156;48.738;9.228;2023-02-11T08:09:31;0.20;1.00
336;DHT22;156;48.738;9.228;2023-02-11T08:11:59;0.40;1.00
336;DHT22;156;48.738;9.228;2023-02-11T08:14:25;0.50;1.00
336;DHT22;156;48.738;9.228;2023-02-11T08:16:53;0.50;1.00
336;DHT22;156;48.738;9.228;2023-02-11T08:19:19;0.40;1.00
336;DHT22;156;48.738;9.228;2023-02-11T08:21:46;0.50;1.00
336;DHT22;156;48.738;9.228;2023-02-11T08:24:15;0.50;1.00
336;DHT22;156;48.738;9.228;2023-02-11T08:26:42;0.60;1.00
336;DHT22;156;48.738;9.228;2023-02-11T08:29:10;0.80;1.00
336;DHT22;156;48.738;9.228;2023-02-11T08:31:40;0.90;1.00
336;DHT22;156;48.738;9.228;2023-02-11T08:34:07;1.10;1.00
336;DHT22;156;48.738;9.228;2023-02-11T08:36:37;1.20;1.00
336;DHT22;156;48.738;9.228;2023-02-11T08:39:06;1.30;1.00
336;DHT22;156;48.738;9.228;2023-02-11T08:41:35;1.30;1.00
336;DHT22;156;48.738;9.228;2023-02-11T08:44:02;1.30;1.00
336;DHT22;156;48.738;9.228;2023-02-11T08:46:29;1.50;1.00
336;DHT22;156;48.738;9.228;2023-02-11T08:48:56;1.50;1.00
336;DHT22;156;48.738;9.228;2023-02-11T08:51:25;1.60;1.00
336;DHT22;156;48.738;9.228;2023-02-11T08:53:53;1.70;1.00
336;DHT22;156;48.738;9.228;2023-02-11T08:56:21;1.70;1.00
336;DHT22;156;48.738;9.228;2023-02-11T08:58:51;1.70;1.00
336;DHT22;156;48.738;9.228;2023-02-11T09:01:20;1.80;1.00
336;DHT22;156;48.738;9.228;2023-02-11T09:03:47;1.80;1.00
336;DHT22;156;48.738;9.228;2023-02-11T09:06:15;1.90;1.00
336;DHT22;156;48.738;9.228;2023-02-11T09:08:44;1.90;1.00
336;DHT22;156;48.738;9.228;2023-02-11T09:11:13;2.00;1.00
336;DHT22;156;48.738;9.228;2023-02-11T09:13:41;2.00;1.00
336;DHT22;156;48.738;9.228;2023-02-11T09:16:16;2.10;1.00
336;DHT22;156;48.738;9.228;2023-02-11T09:18:43;2.00;1.00
336;DHT22;156;48.738;9.228;2023-02-11T09:21:10;2.10;1.00
336;DHT22;156;48.738;9.228;2023-02-11T09:23:37;2.10;1.00
336;DHT22;156;48.738;9.228;2023-02-11T09:26:09;2.10;1.00
336;DHT22;156;48.738;9.228;2023-02-11T09:28:36;2.20;1.00
336;DHT22;156;48.738;9.228;2023-02-11T09:31:04;2.20;1.00
336;DHT22;156;48.738;9.228;2023-02-11T09:33:33;2.30;1.00
336;DHT22;156;48.738;9.228;2023-02-11T09:36:00;2.30;1.00
336;DHT22;156;48.738;9.228;2023-02-11T09:38:27;2.30;1.00
336;DHT22;156;48.738;9.228;2023-02-11T09:40:54;2.50;1.00
336;DHT22;156;48.738;9.228;2023-02-11T09:43:23;2.40;1.00
336;DHT22;156;48.738;9.228;2023-02-11T09:45:54;2.60;1.00
336;DHT22;156;48.738;9.228;2023-02-11T09:48:22;2.60;1.00
336;DHT22;156;48.738;9.228;2023-02-11T09:50:53;2.60;1.00
336;DHT22;156;48.738;9.228;2023-02-11T09:53:24;2.70;1.00
336;DHT22;156;48.738;9.228;2023-02-11T09:55:53;2.70;1.00
336;DHT22;156;48.738;9.228;2023-02-11T09:58:25;2.80;1.00
336;DHT22;156;48.738;9.228;2023-02-11T10:00:59;2.90;1.00
336;DHT22;156;48.738;9.228;2023-02-11T10:03:42;3.00;1.00
336;DHT22;156;48.738;9.228;2023-02-11T10:06:40;3.10;1.00
336;DHT22;156;48.738;9.228;2023-02-11T10:12:17;3.40;1.00
336;DHT22;156;48.738;9.228;2023-02-11T10:15:07;3.60;1.00
336;DHT22;156;48.738;9.228;2023-02-11T10:17:45;3.80;1.00
336;DHT22;156;48.738;9.228;2023-02-11T10:20:24;3.80;1.00
336;DHT22;156;48.738;9.228;2023-02-11T10:22:58;4.00;1.00
336;DHT22;156;48.738;9.228;2023-02-11T10:25:32;4.20;1.00
336;DHT22;156;48.738;9.228;2023-02-11T10:28:08;4.30;1.00
336;DHT22;156;48.738;9.228;2023-02-11T10:30:41;4.50;1.00
336;DHT22;156;48.738;9.228;2023-02-11T10:33:14;4.60;1.00
336;DHT22;156;48.738;9.228;2023-02-11T10:35:43;4.60;1.00
336;DHT22;156;48.738;9.228;2023-02-11T10:38:12;4.70;1.00
336;DHT22;156;48.738;9.228;2023-02-11T10:40:38;4.70;1.00
336;DHT22;156;48.738;9.228;2023-02-11T10:43:09;4.80;1.00
336;DHT22;156;48.738;9.228;2023-02-11T10:45:41;4.90;1.00
336;DHT22;156;48.738;9.228;2023-02-11T10:48:37;5.00;1.00
336;DHT22;156;48.738;9.228;2023-02-11T10:51:17;5.00;1.00
336;DHT22;156;48.738;9.228;2023-02-11T10:53:46;5.10;1.00
336;DHT22;156;48.738;9.228;2023-02-11T10:56:20;5.30;1.00
336;DHT22;156;48.738;9.228;2023-02-11T10:58:55;5.40;1.00
336;DHT22;156;48.738;9.228;2023-02-11T11:01:37;5.50;1.00
336;DHT22;156;48.738;9.228;2023-02-11T11:04:05;5.60;1.00
336;DHT22;156;48.738;9.228;2023-02-11T11:06:32;5.70;1.00
336;DHT22;156;48.738;9.228;2023-02-11T11:09:02;5.70;1.00
336;DHT22;156;48.738;9.228;2023-02-11T11:11:29;5.70;1.00
336;DHT22;156;48.738;9.228;2023-02-11T11:13:57;5.80;1.00
336;DHT22;156;48.738;9.228;2023-02-11T11:16:25;5.90;1.00
336;DHT22;156;48.738;9.228;2023-02-11T11:19:15;6.00;1.00
336;DHT22;156;48.738;9.228;2023-02-11T11:21:46;6.10;1.00
336;DHT22;156;48.738;9.228;2023-02-11T11:24:19;6.20;1.00
336;DHT22;156;48.738;9.228;2023-02-11T11:26:49;6.30;1.00
336;DHT22;156;48.738;9.228;2023-02-11T11:29:18;6.40;1.00
336;DHT22;156;48.738;9.228;2023-02-11T11:31:50;6.50;1.00
336;DHT22;156;48.738;9.228;2023-02-11T11:34:22;6.60;1.00
336;DHT22;156;48.738;9.228;2023-02-11T11:36:49;6.70;1.00
336;DHT22;156;48.738;9.228;2023-02-11T11:39:22;6.70;1.00
336;DHT22;156;48.738;9.228;2023-02-11T11:41:52;6.70;1.00
336;DHT22;156;48.738;9.228;2023-02-11T11:44:26;6.80;1.00
336;DHT22;156;48.738;9.228;2023-02-11T11:47:16;6.80;1.00
336;DHT22;156;48.738;9.228;2023-02-11T11:49:49;6.90;1.00
336;DHT22;156;48.738;9.228;2023-02-11T11:52:23;7.00;1.00
336;DHT22;156;48.738;9.228;2023-02-11T11:54:57;7.20;1.00
336;DHT22;156;48.738;9.228;2023-02-11T11:57:26;7.30;1.00
336;DHT22;156;48.738;9.228;2023-02-11T11:59:57;7.00;1.00
336;DHT22;156;48.738;9.228;2023-02-11T12:03:01;7.00;1.00
336;DHT22;156;48.738;9.228;2023-02-11T12:05:35;7.30;1.00
336;DHT22;156;48.738;9.228;2023-02-11T12:08:15;7.70;1.00
336;DHT22;156;48.738;9.228;2023-02-11T12:11:00;7.80;1.00
336;DHT22;156;48.738;9.228;2023-02-11T12:13:45;7.80;1.00
336;DHT22;156;48.738;9.228;2023-02-11T12:16:22;7.80;1.00
336;DHT22;156;48.738;9.228;2023-02-11T12:22:04;8.20;1.00
336;DHT22;156;48.738;9.228;2023-02-11T12:24:55;8.40;1.00
336;DHT22;156;48.738;9.228;2023-02-11T12:27:39;8.70;1.00
336;DHT22;156;48.738;9.228;2023-02-11T12:30:21;9.30;1.00
336;DHT22;156;48.738;9.228;2023-02-11T12:32:56;9.50;1.00
336;DHT22;156;48.738;9.228;2023-02-11T12:35:36;9.30;1.00
336;DHT22;156;48.738;9.228;2023-02-11T12:38:23;9.20;1.00
336;DHT22;156;48.738;9.228;2023-02-11T12:41:02;8.80;1.00
336;DHT22;156;48.738;9.228;2023-02-11T12:43:38;8.50;1.00
336;DHT22;156;48.738;9.228;2023-02-11T12:46:33;8.50;1.00
336;DHT22;156;48.738;9.228;2023-02-11T12:49:17;8.90;1.00
336;DHT22;156;48.738;9.228;2023-02-11T12:52:00;9.00;1.00
336;DHT22;156;48.738;9.228;2023-02-11T12:54:35;9.10;1.00
336;DHT22;156;48.738;9.228;2023-02-11T12:57:09;9.40;1.00
336;DHT22;156;48.738;9.228;2023-02-11T12:59:46;9.10;1.00
336;DHT22;156;48.738;9.228;2023-02-11T13:02:20;8.80;1.00
336;DHT22;156;48.738;9.228;2023-02-11T13:04:52;8.40;1.00
336;DHT22;156;48.738;9.228;2023-02-11T13:07:23;8.30;1.00
336;DHT22;156;48.738;9.228;2023-02-11T13:09:56;8.20;1.00
336;DHT22;156;48.738;9.228;2023-02-11T13:12:28;8.20;1.00
336;DHT22;156;48.738;9.228;2023-02-11T13:15:17;8.10;1.00
336;DHT22;156;48.738;9.228;2023-02-11T13:17:52;8.10;1.00
336;DHT22;156;48.738;9.228;2023-02-11T13:20:31;8.10;1.00
336;DHT22;156;48.738;9.228;2023-02-11T13:23:07;8.10;1.00
336;DHT22;156;48.738;9.228;2023-02-11T13:25:41;8.10;1.00
336;DHT22;156;48.738;9.228;2023-02-11T13:28:21;8.10;1.00
336;DHT22;156;48.738;9.228;2023-02-11T13:30:50;8.20;1.00
336;DHT22;156;48.738;9.228;2023-02-11T13:33:31;8.20;1.00
336;DHT22;156;48.738;9.228;2023-02-11T13:36:17;8.10;1.00
336;DHT22;156;48.738;9.228;2023-02-11T13:38:59;8.20;1.00
336;DHT22;156;48.738;9.228;2023-02-11T13:41:32;8.10;1.00
336;DHT22;156;48.738;9.228;2023-02-11T13:44:17;8.00;1.00
336;DHT22;156;48.738;9.228;2023-02-11T13:46:51;8.00;1.00
336;DHT22;156;48.738;9.228;2023-02-11T13:49:22;8.00;1.00
336;DHT22;156;48.738;9.228;2023-02-11T13:51:50;7.90;1.00
336;DHT22;156;48.738;9.228;2023-02-11T13:54:22;7.90;1.00
336;DHT22;156;48.738;9.228;2023-02-11T13:57:26;7.80;1.00
336;DHT22;156;48.738;9.228;2023-02-11T13:59:56;7.90;1.00
336;DHT22;156;48.738;9.228;2023-02-11T14:02:27;8.30;1.00
336;DHT22;156;48.738;9.228;2023-02-11T14:05:29;8.70;1.00
336;DHT22;156;48.738;9.228;2023-02-11T14:08:20;9.10;1.00
336;DHT22;156;48.738;9.228;2023-02-11T14:14:02;9.20;1.00
336;DHT22;156;48.738;9.228;2023-02-11T14:19:47;9.30;1.00
336;DHT22;156;48.738;9.228;2023-02-11T14:22:17;9.50;1.00
336;DHT22;156;48.738;9.228;2023-02-11T14:24:49;9.40;1.00
336;DHT22;156;48.738;9.228;2023-02-11T14:27:39;9.40;1.00
336;DHT22;156;48.738;9.228;2023-02-11T14:36:18;10.10;1.00
336;DHT22;156;48.738;9.228;2023-02-11T14:38:57;10.30;1.00
336;DHT22;156;48.738;9.228;2023-02-11T14:41:29;10.00;1.00
336;DHT22;156;48.738;9.228;2023-02-11T14:43:59;9.80;1.00
336;DHT22;156;48.738;9.228;2023-02-11T14:46:28;9.80;1.00
336;DHT22;156;48.738;9.228;2023-02-11T14:48:59;9.70;1.00
336;DHT22;156;48.738;9.228;2023-02-11T14:51:29;9.70;1.00
336;DHT22;156;48.738;9.228;2023-02-11T14:54:00;9.90;1.00
336;DHT22;156;48.738;9.228;2023-02-11T14:56:30;9.80;1.00
336;DHT22;156;48.738;9.228;2023-02-11T14:59:00;9.60;1.00
336;DHT22;156;48.738;9.228;2023-02-11T15:01:29;9.70;1.00
336;DHT22;156;48.738;9.228;2023-02-11T15:04:02;9.60;1.00
336;DHT22;156;48.738;9.228;2023-02-11T15:06:33;9.50;1.00
336;DHT22;156;48.738;9.228;2023-02-11T15:09:04;9.50;1.00
336;DHT22;156;48.738;9.228;2023-02-11T15:11:33;9.40;1.00
336;DHT22;156;48.738;9.228;2023-02-11T15:14:08;9.20;1.00
336;DHT22;156;48.738;9.228;2023-02-11T15:16:40;9.20;1.00
336;DHT22;156;48.738;9.228;2023-02-11T15:19:19;9.10;1.00
336;DHT22;156;48.738;9.228;2023-02-11T15:21:49;9.10;1.00
336;DHT22;156;48.738;9.228;2023-02-11T15:24:23;9.10;1.00
336;DHT22;156;48.738;9.228;2023-02-11T15:26:58;9.00;1.00
336;DHT22;156;48.738;9.228;2023-02-11T15:29:26;8.80;1.00
336;DHT22;156;48.738;9.228;2023-02-11T15:32:11;8.70;1.00
336;DHT22;156;48.738;9.228;2023-02-11T15:34:39;8.80;1.00
336;DHT22;156;48.738;9.228;2023-02-11T15:37:10;8.80;1.00
336;DHT22;156;48.738;9.228;2023-02-11T15:39:40;8.60;1.00
336;DHT22;156;48.738;9.228;2023-02-11T15:42:18;8.30;1.00
336;DHT22;156;48.738;9.228;2023-02-11T15:44:46;8.20;1.00
336;DHT22;156;48.738;9.228;2023-02-11T15:47:18;8.20;1.00
336;DHT22;156;48.738;9.228;2023-02-11T15:49:46;7.90;1.00
336;DHT22;156;48.738;9.228;2023-02-11T15:52:22;7.80;1.00
336;DHT22;156;48.738;9.228;2023-02-11T15:54:50;7.70;1.00
336;DHT22;156;48.738;9.228;2023-02-11T15:57:19;7.40;1.00
336;DHT22;156;48.738;9.228;2023-02-11T15:59:48;7.20;1.00
336;DHT22;156;48.738;9.228;2023-02-11T16:02:18;7.00;1.00
336;DHT22;156;48.738;9.228;2023-02-11T16:04:50;6.80;1.00
336;DHT22;156;48.738;9.228;2023-02-11T16:07:43;6.70;1.00
336;DHT22;156;48.738;9.228;2023-02-11T16:10:22;6.60;1.00
336;DHT22;156;48.738;9.228;2023-02-11T16:12:55;6.50;1.00
336;DHT22;156;48.738;9.228;2023-02-11T16:15:29;6.40;1.00
336;DHT22;156;48.738;9.228;2023-02-11T16:17:57;6.40;1.00
336;DHT22;156;48.738;9.228;2023-02-11T16:20:23;6.40;1.00
336;DHT22;156;48.738;9.228;2023-02-11T16:22:52;6.70;1.00
336;DHT22;156;48.738;9.228;2023-02-11T16:25:20;6.40;1.00
336;DHT22;156;48.738;9.228;2023-02-11T16:27:49;6.40;1.00
336;DHT22;156;48.738;9.228;2023-02-11T16:30:26;6.40;1.00
336;DHT22;156;48.738;9.228;2023-02-11T16:32:54;6.40;1.00
336;DHT22;156;48.738;9.228;2023-02-11T16:35:21;6.30;1.00
336;DHT22;156;48.738;9.228;2023-02-11T16:37:48;6.30;1.00
336;DHT22;156;48.738;9.228;2023-02-11T16:40:16;6.30;1.00
336;DHT22;156;48.738;9.228;2023-02-11T16:42:43;6.20;1.00
336;DHT22;156;48.738;9.228;2023-02-11T16:45:10;6.30;1.00
336;DHT22;156;48.738;9.228;2023-02-11T16:47:39;6.20;1.00
336;DHT22;156;48.738;9.228;2023-02-11T16:50:08;6.20;1.00
336;DHT22;156;48.738;9.228;2023-02-11T16:52:36;6.20;1.00
336;DHT22;156;48.738;9.228;2023-02-11T16:55:04;6.20;1.00
336;DHT22;156;48.738;9.228;2023-02-11T16:57:32;6.10;1.00
336;DHT22;156;48.738;9.228;2023-02-11T16:59:59;6.10;1.00
336;DHT22;156;48.738;9.228;2023-02-11T17:02:28;6.00;1.00
336;DHT22;156;48.738;9.228;2023-02-11T17:04:58;6.00;1.00
336;DHT22;156;48.738;9.228;2023-02-11T17:07:25;6.00;1.00
336;DHT22;156;48.738;9.228;2023-02-11T17:09:52;6.00;1.00
336;DHT22;156;48.738;9.228;2023-02-11T17:12:20;6.00;1.00
336;DHT22;156;48.738;9.228;2023-02-11T17:14:51;6.00;1.00
336;DHT22;156;48.738;9.228;2023-02-11T17:17:18;6.00;1.00
336;DHT22;156;48.738;9.228;2023-02-11T17:19:46;6.00;1.00
336;DHT22;156;48.738;9.228;2023-02-11T17:22:13;5.90;1.00
336;DHT22;156;48.738;9.228;2023-02-11T17:24:40;6.00;1.00
336;DHT22;156;48.738;9.228;2023-02-11T17:27:08;6.00;1.00
336;DHT22;156;48.738;9.228;2023-02-11T17:29:35;6.00;1.00
336;DHT22;156;48.738;9.228;2023-02-11T17:32:04;6.00;1.00
336;DHT22;156;48.738;9.228;2023-02-11T17:34:31;6.10;1.00
336;DHT22;156;48.738;9.228;2023-02-11T17:36:58;6.10;1.00
336;DHT22;156;48.738;9.228;2023-02-11T17:39:27;6.20;1.00
336;DHT22;156;48.738;9.228;2023-02-11T17:41:54;6.20;1.00
336;DHT22;156;48.738;9.228;2023-02-11T17:44:21;6.10;1.00
336;DHT22;156;48.738;9.228;2023-02-11T17:46:49;6.20;1.00
336;DHT22;156;48.738;9.228;2023-02-11T17:49:32;6.20;1.00
336;DHT22;156;48.738;9.228;2023-02-11T17:51:59;6.30;1.00
336;DHT22;156;48.738;9.228;2023-02-11T17:54:26;6.10;1.00
336;DHT22;156;48.738;9.228;2023-02-11T17:56:53;6.10;1.00